createdAt,value
2019-03-01T00:01:24.954Z,99439.23
2019-03-01T00:04:02.526Z,99445.61
2019-03-01T00:06:46.570Z,99451.92
2019-03-01T00:09:53.229Z,99446.55
2019-03-01T00:12:52.960Z,99441.07
2019-03-01T00:15:56.604Z,99447.05
2019-03-01T00:19:10.195Z,99440.72
2019-03-01T00:22:11.950Z,99437.02
2019-03-01T00:25:04.821Z,99428.50
2019-03-01T00:28:25.363Z,99431.66
2019-03-01T00:31:36.481Z,99428.84
2019-03-01T00:34:47.101Z,99418.68
2019-03-01T00:38:16.582Z,99414.34
2019-03-01T00:41:24.869Z,99412.02
2019-03-01T00:44:31.145Z,99416.84
2019-03-01T00:47:01.582Z,99414.33
2019-03-01T00:49:33.054Z,99411.20
2019-03-01T00:52:03.546Z,99415.50
2019-03-01T00:54:34.994Z,99408.70
2019-03-01T00:57:06.772Z,99404.84
2019-03-01T00:59:37.579Z,99401.34
2019-03-01T01:02:08.485Z,99393.33
2019-03-01T01:04:39.001Z,99383.99
2019-03-01T01:07:10.181Z,99394.14
2019-03-01T01:09:40.625Z,99391.64
2019-03-01T01:12:11.401Z,99384.97
2019-03-01T01:14:41.908Z,99375.30
2019-03-01T01:17:12.349Z,99379.30
2019-03-01T01:19:43.574Z,99381.16
2019-03-01T01:22:14.455Z,99380.30
2019-03-01T01:24:44.889Z,99370.31
2019-03-01T01:27:15.324Z,99370.97
2019-03-01T01:29:45.828Z,99374.66
2019-03-01T01:32:16.280Z,99371.14
2019-03-01T01:34:46.713Z,99368.97
2019-03-01T01:37:17.545Z,99364.81
2019-03-01T01:39:48.022Z,99361.28
2019-03-01T01:42:18.468Z,99362.14
2019-03-01T01:44:48.954Z,99373.00
2019-03-01T01:47:19.405Z,99360.34
2019-03-01T01:49:50.167Z,99360.83
2019-03-01T01:52:20.838Z,99351.66
2019-03-01T01:54:51.451Z,99357.00
2019-03-01T01:57:21.887Z,99345.33
2019-03-01T01:59:52.371Z,99342.66
2019-03-01T02:02:22.925Z,99340.65
2019-03-01T02:04:53.383Z,99342.97
2019-03-01T02:07:24.199Z,99345.98
2019-03-01T02:09:59.165Z,99345.33
2019-03-01T02:12:29.825Z,99350.66
2019-03-01T02:15:00.331Z,99345.97
2019-03-01T02:17:30.792Z,99341.80
2019-03-01T02:20:01.270Z,99335.83
2019-03-01T02:22:32.030Z,99330.48
2019-03-01T02:25:02.478Z,99332.98
2019-03-01T02:27:33.914Z,99335.95
2019-03-01T02:30:07.320Z,99335.60
2019-03-01T02:32:46.940Z,99334.09
2019-03-01T02:35:35.697Z,99327.59
2019-03-01T02:38:06.183Z,99320.45
2019-03-01T02:40:37.237Z,99314.95
2019-03-01T02:43:07.836Z,99323.78
2019-03-01T02:45:38.318Z,99318.44
2019-03-01T02:48:08.758Z,99312.91
2019-03-01T02:50:39.196Z,99302.91
2019-03-01T02:53:10.000Z,99301.09
2019-03-01T02:55:41.145Z,99293.27
2019-03-01T02:58:12.023Z,99292.94
2019-03-01T03:00:42.502Z,99292.23
2019-03-01T03:03:13.207Z,99292.58
2019-03-01T03:05:59.690Z,99286.43
2019-03-01T03:08:30.135Z,99291.41
2019-03-01T03:11:00.577Z,99291.07
2019-03-01T03:13:32.018Z,99290.20
2019-03-01T03:16:02.704Z,99284.23
2019-03-01T03:18:34.501Z,99281.91
2019-03-01T03:21:05.372Z,99283.08
2019-03-01T03:23:35.819Z,99280.42
2019-03-01T03:26:06.262Z,99285.44
2019-03-01T03:28:37.754Z,99281.58
2019-03-01T03:31:08.201Z,99284.58
2019-03-01T03:33:38.651Z,99289.55
2019-03-01T03:36:09.147Z,99283.87
2019-03-01T03:38:39.591Z,99284.05
2019-03-01T03:41:10.946Z,99286.89
2019-03-01T03:43:41.702Z,99285.56
2019-03-01T03:46:12.413Z,99283.89
2019-03-01T03:48:43.813Z,99283.08
2019-03-01T03:51:14.306Z,99282.42
2019-03-01T03:53:44.748Z,99282.73
2019-03-01T03:56:15.259Z,99283.89
2019-03-01T03:58:45.763Z,99279.06
2019-03-01T04:01:16.195Z,99276.75
2019-03-01T04:03:47.643Z,99278.91
2019-03-01T04:06:18.142Z,99274.39
2019-03-01T04:08:49.025Z,99279.25
2019-03-01T04:11:19.647Z,99278.60
2019-03-01T04:13:50.140Z,99277.44
2019-03-01T04:16:21.243Z,99271.26
2019-03-01T04:18:52.588Z,99269.41
2019-03-01T04:21:23.175Z,99271.25
2019-03-01T04:23:53.612Z,99276.25
2019-03-01T04:26:24.045Z,99270.45
2019-03-01T04:28:54.540Z,99271.61
2019-03-01T04:31:25.384Z,99266.61
2019-03-01T04:33:55.846Z,99257.94
2019-03-01T04:36:26.338Z,99266.62
2019-03-01T04:38:56.776Z,99264.77
2019-03-01T04:41:27.610Z,99266.10
2019-03-01T04:43:58.430Z,99269.63
2019-03-01T04:46:28.870Z,99259.95
2019-03-01T04:48:59.650Z,99256.13
2019-03-01T04:51:30.808Z,99253.12
2019-03-01T04:54:02.663Z,99251.95
2019-03-01T04:56:33.175Z,99263.30
2019-03-01T04:59:04.033Z,99255.61
2019-03-01T05:01:34.546Z,99258.28
2019-03-01T05:04:04.985Z,99252.13
2019-03-01T05:06:35.834Z,99257.80
2019-03-01T05:09:07.790Z,99260.13
2019-03-01T05:11:38.567Z,99259.27
2019-03-01T05:14:09.057Z,99258.61
2019-03-01T05:16:39.497Z,99256.12
2019-03-01T05:19:09.938Z,99261.94
2019-03-01T05:21:41.209Z,99259.95
2019-03-01T05:24:11.644Z,99258.28
2019-03-01T05:26:42.086Z,99257.45
2019-03-01T05:29:12.999Z,99259.44
2019-03-01T05:31:43.814Z,99259.60
2019-03-01T05:34:14.257Z,99256.59
2019-03-01T05:36:44.781Z,99260.25
2019-03-01T05:39:15.195Z,99249.07
2019-03-01T05:41:45.629Z,99253.07
2019-03-01T05:44:16.473Z,99248.08
2019-03-01T05:46:46.920Z,99245.92
2019-03-01T05:49:18.258Z,99252.23
2019-03-01T05:51:49.124Z,99255.72
2019-03-01T05:54:19.574Z,99254.39
2019-03-01T05:56:50.353Z,99260.58
2019-03-01T05:59:23.322Z,99255.89
2019-03-01T06:02:25.669Z,99256.41
2019-03-01T06:04:59.591Z,99261.91
2019-03-01T06:08:35.134Z,99256.59
2019-03-01T06:11:44.407Z,99264.76
2019-03-01T06:15:17.101Z,99267.42
2019-03-01T06:18:01.846Z,99260.08
2019-03-01T06:20:43.402Z,99261.06
2019-03-01T06:23:31.745Z,99266.91
2019-03-01T06:26:49.216Z,99269.23
2019-03-01T06:29:58.390Z,99266.91
2019-03-01T06:32:57.098Z,99263.23
2019-03-01T06:35:59.607Z,99264.41
2019-03-01T06:39:19.473Z,99266.56
2019-03-01T06:42:31.738Z,99266.25
2019-03-01T06:45:40.100Z,99271.38
2019-03-01T06:48:14.134Z,99265.39
2019-03-01T06:50:49.478Z,99266.73
2019-03-01T06:53:19.972Z,99264.24
2019-03-01T06:55:56.258Z,99267.25
2019-03-01T06:58:53.791Z,99266.56
2019-03-01T07:01:29.582Z,99262.27
2019-03-01T07:04:08.760Z,99267.42
2019-03-01T07:06:39.253Z,99262.09
2019-03-01T07:09:09.715Z,99267.77
2019-03-01T07:11:40.554Z,99271.44
2019-03-01T07:14:11.381Z,99272.42
2019-03-01T07:16:42.150Z,99271.09
2019-03-01T07:19:12.645Z,99275.60
2019-03-01T07:21:43.082Z,99273.80
2019-03-01T07:24:13.611Z,99280.63
2019-03-01T07:26:44.272Z,99283.30
2019-03-01T07:29:15.687Z,99281.28
2019-03-01T07:31:46.154Z,99281.62
2019-03-01T07:34:16.602Z,99286.95
2019-03-01T07:36:47.622Z,99286.27
2019-03-01T07:39:18.081Z,99288.11
2019-03-01T07:41:49.576Z,99286.09
2019-03-01T07:44:20.234Z,99289.45
2019-03-01T07:46:53.237Z,99291.13
2019-03-01T07:49:23.226Z,99298.27
2019-03-01T07:51:53.670Z,99303.12
2019-03-01T07:54:25.129Z,99308.76
2019-03-01T07:56:55.542Z,99307.59
2019-03-01T07:59:26.363Z,99305.28
2019-03-01T08:01:56.810Z,99314.44
2019-03-01T08:04:29.543Z,99313.61
2019-03-01T08:06:59.796Z,99318.27
2019-03-01T08:09:30.238Z,99319.12
2019-03-01T08:12:03.673Z,99325.61
2019-03-01T08:14:33.575Z,99314.61
2019-03-01T08:17:04.010Z,99321.27
2019-03-01T08:19:34.485Z,99319.64
2019-03-01T08:22:05.452Z,99324.63
2019-03-01T08:24:36.301Z,99327.64
2019-03-01T08:27:09.929Z,99332.94
2019-03-01T08:29:40.581Z,99336.28
2019-03-01T08:32:11.123Z,99335.95
2019-03-01T08:34:44.341Z,99332.63
2019-03-01T08:37:17.636Z,99328.12
2019-03-01T08:39:46.951Z,99333.97
2019-03-01T08:42:17.394Z,99332.63
2019-03-01T08:44:47.879Z,99340.47
2019-03-01T08:47:23.545Z,99339.13
2019-03-01T08:49:50.465Z,99334.66
2019-03-01T08:52:21.046Z,99340.98
2019-03-01T08:54:51.494Z,99344.98
2019-03-01T08:57:22.699Z,99347.14
2019-03-01T08:59:54.449Z,99345.98
2019-03-01T09:02:24.937Z,99343.31
2019-03-01T09:04:55.413Z,99348.00
2019-03-01T09:07:27.145Z,99342.02
2019-03-01T09:09:58.083Z,99345.51
2019-03-01T09:12:28.722Z,99348.34
2019-03-01T09:14:59.366Z,99353.50
2019-03-01T09:17:30.245Z,99352.00
2019-03-01T09:20:01.174Z,99348.69
2019-03-01T09:22:33.694Z,99347.70
2019-03-01T09:25:07.486Z,99351.70
2019-03-01T09:27:37.359Z,99350.84
2019-03-01T09:30:11.543Z,99346.19
2019-03-01T09:32:41.993Z,99350.04
2019-03-01T09:35:44.553Z,99343.19
2019-03-01T09:38:15.025Z,99347.84
2019-03-01T09:40:45.911Z,99345.34
2019-03-01T09:43:17.042Z,99350.38
2019-03-01T09:45:48.760Z,99352.04
2019-03-01T09:48:19.647Z,99356.36
2019-03-01T09:50:50.388Z,99355.38
2019-03-01T09:53:20.854Z,99352.70
2019-03-01T09:55:51.298Z,99352.36
2019-03-01T09:58:21.868Z,99350.19
2019-03-01T10:00:56.853Z,99355.20
2019-03-01T10:03:27.307Z,99360.37
2019-03-01T10:05:58.195Z,99363.88
2019-03-01T10:08:28.635Z,99363.39
2019-03-01T10:10:59.518Z,99374.72
2019-03-01T10:13:30.487Z,99378.38
2019-03-01T10:16:01.125Z,99381.22
2019-03-01T10:18:31.591Z,99382.38
2019-03-01T10:21:02.030Z,99378.04
2019-03-01T10:23:32.514Z,99384.23
2019-03-01T10:26:02.956Z,99379.55
2019-03-01T10:28:33.396Z,99379.88
2019-03-01T10:31:04.209Z,99385.39
2019-03-01T10:33:34.652Z,99385.73
2019-03-01T10:36:06.527Z,99400.72
2019-03-01T10:38:37.340Z,99406.06
2019-03-01T10:41:08.175Z,99411.57
2019-03-01T10:43:38.692Z,99416.42
2019-03-01T10:46:09.160Z,99415.05
2019-03-01T10:48:39.595Z,99415.39
2019-03-01T10:51:10.093Z,99418.06
2019-03-01T10:53:40.842Z,99415.73
2019-03-01T10:56:11.277Z,99415.39
2019-03-01T10:58:41.746Z,99417.54
2019-03-01T11:01:12.288Z,99421.20
2019-03-01T11:03:43.197Z,99416.04
2019-03-01T11:06:13.637Z,99425.89
2019-03-01T11:08:44.137Z,99430.88
2019-03-01T11:11:14.589Z,99439.23
2019-03-01T11:13:45.057Z,99440.90
2019-03-01T11:16:15.550Z,99445.88
2019-03-01T11:18:45.985Z,99445.70
2019-03-01T11:21:16.425Z,99453.17
2019-03-01T11:23:46.909Z,99453.98
2019-03-01T11:26:17.353Z,99451.13
2019-03-01T11:28:47.795Z,99455.63
2019-03-01T11:31:18.263Z,99452.47
2019-03-01T11:33:49.184Z,99449.45
2019-03-01T11:36:19.668Z,99448.97
2019-03-01T11:38:50.101Z,99459.95
2019-03-01T11:41:20.590Z,99456.29
2019-03-01T11:43:51.038Z,99467.27
2019-03-01T11:46:21.904Z,99465.25
2019-03-01T11:48:52.536Z,99469.92
2019-03-01T11:51:23.552Z,99474.05
2019-03-01T11:53:54.023Z,99480.54
2019-03-01T11:56:24.479Z,99485.56
2019-03-01T11:58:55.008Z,99487.86
2019-03-01T12:01:25.467Z,99487.17
2019-03-01T12:03:55.915Z,99483.13
2019-03-01T12:06:26.386Z,99485.39
2019-03-01T12:08:56.864Z,99493.76
2019-03-01T12:11:27.710Z,99491.92
2019-03-01T12:13:58.237Z,99492.32
2019-03-01T12:16:28.695Z,99493.25
2019-03-01T12:18:59.133Z,99500.15
2019-03-01T12:21:29.606Z,99504.13
2019-03-01T12:24:00.046Z,99507.88
2019-03-01T12:26:30.529Z,99508.03
2019-03-01T12:29:01.001Z,99515.76
2019-03-01T12:31:31.450Z,99515.63
2019-03-01T12:34:02.742Z,99515.72
2019-03-01T12:36:33.181Z,99523.71
2019-03-01T12:39:05.549Z,99523.88
2019-03-01T12:41:36.439Z,99528.84
2019-03-01T12:44:07.217Z,99528.84
2019-03-01T12:46:37.686Z,99526.06
2019-03-01T12:49:08.902Z,99526.91
2019-03-01T12:51:39.378Z,99535.69
2019-03-01T12:54:09.893Z,99535.63
2019-03-01T12:56:40.377Z,99540.25
2019-03-01T12:59:10.830Z,99556.77
2019-03-01T13:01:41.837Z,99558.56
2019-03-01T13:04:15.675Z,99571.72
2019-03-01T13:06:45.290Z,99578.30
2019-03-01T13:09:17.446Z,99580.48
2019-03-01T13:11:48.673Z,99583.50
2019-03-01T13:14:20.461Z,99577.00
2019-03-01T13:16:50.962Z,99587.12
2019-03-01T13:19:23.306Z,99587.15
2019-03-01T13:21:53.592Z,99596.84
2019-03-01T13:24:24.148Z,99597.39
2019-03-01T13:26:55.721Z,99596.78
2019-03-01T13:29:26.153Z,99605.57
2019-03-01T13:31:56.638Z,99602.41
2019-03-01T13:34:27.082Z,99606.44
2019-03-01T13:36:57.578Z,99611.77
2019-03-01T13:39:28.749Z,99607.16
2019-03-01T13:41:59.219Z,99600.98
2019-03-01T13:44:29.713Z,99598.38
2019-03-01T13:47:00.177Z,99604.05
2019-03-01T13:49:31.391Z,99604.70
2019-03-01T13:52:02.258Z,99598.88
2019-03-01T13:54:33.265Z,99596.73
2019-03-01T13:57:03.850Z,99607.92
2019-03-01T13:59:37.556Z,99599.95
2019-03-01T14:02:07.543Z,99611.56
2019-03-01T14:04:40.408Z,99609.41
2019-03-01T14:07:11.094Z,99613.10
2019-03-01T14:09:41.573Z,99615.29
2019-03-01T14:12:12.023Z,99615.66
2019-03-01T14:14:42.581Z,99616.67
2019-03-01T14:17:13.088Z,99621.69
2019-03-01T14:19:43.805Z,99625.13
2019-03-01T14:22:14.282Z,99629.91
2019-03-01T14:24:45.119Z,99637.33
2019-03-01T14:27:15.596Z,99634.61
2019-03-01T14:29:52.387Z,99634.55
2019-03-01T14:32:21.734Z,99642.82
2019-03-01T14:34:50.937Z,99650.16
2019-03-01T14:37:21.922Z,99652.20
2019-03-01T14:39:53.305Z,99651.28
2019-03-01T14:42:24.355Z,99648.27
2019-03-01T14:44:55.616Z,99659.74
2019-03-01T14:47:29.060Z,99660.50
2019-03-01T14:49:58.754Z,99664.42
2019-03-01T14:52:29.170Z,99671.21
2019-03-01T14:54:59.614Z,99672.11
2019-03-01T14:57:33.298Z,99668.09
2019-03-01T15:00:17.007Z,99679.11
2019-03-01T15:03:01.753Z,99675.20
2019-03-01T15:05:32.386Z,99675.95
2019-03-01T15:08:03.193Z,99677.50
2019-03-01T15:10:35.650Z,99674.95
2019-03-01T15:13:06.244Z,99680.66
2019-03-01T15:15:38.230Z,99680.63
2019-03-01T15:18:11.262Z,99685.44
2019-03-01T15:20:42.059Z,99682.17
2019-03-01T15:23:12.630Z,99692.58
2019-03-01T15:25:47.511Z,99689.95
2019-03-01T15:28:16.668Z,99687.01
2019-03-01T15:30:47.554Z,99693.03
2019-03-01T15:33:18.402Z,99684.28
2019-03-01T15:35:48.870Z,99684.78
2019-03-01T15:38:19.314Z,99684.20
2019-03-01T15:40:49.784Z,99683.52
2019-03-01T15:43:20.335Z,99683.63
2019-03-01T15:45:51.203Z,99686.64
2019-03-01T15:48:21.640Z,99693.83
2019-03-01T15:50:52.276Z,99695.52
2019-03-01T15:53:24.958Z,99695.73
2019-03-01T15:55:56.186Z,99707.84
2019-03-01T15:58:29.282Z,99706.66
2019-03-01T16:01:01.004Z,99714.95
2019-03-01T16:03:31.609Z,99720.81
2019-03-01T16:06:02.051Z,99726.34
2019-03-01T16:08:32.561Z,99728.74
2019-03-01T16:11:03.010Z,99733.83
2019-03-01T16:13:33.532Z,99733.91
2019-03-01T16:16:04.062Z,99735.59
2019-03-01T16:18:35.397Z,99734.80
2019-03-01T16:21:06.649Z,99738.80
2019-03-01T16:23:37.148Z,99745.85
2019-03-01T16:26:08.487Z,99751.30
2019-03-01T16:28:38.972Z,99750.52
2019-03-01T16:31:09.421Z,99762.59
2019-03-01T16:33:39.884Z,99757.26
2019-03-01T16:36:23.376Z,99761.91
2019-03-01T16:38:53.900Z,99763.56
2019-03-01T16:41:24.336Z,99766.63
2019-03-01T16:43:54.828Z,99768.92
2019-03-01T16:46:28.529Z,99770.03
2019-03-01T16:48:57.854Z,99773.13
2019-03-01T16:51:28.314Z,99785.34
2019-03-01T16:53:59.186Z,99792.53
2019-03-01T16:56:29.633Z,99790.02
2019-03-01T16:59:03.235Z,99794.22
2019-03-01T17:01:32.327Z,99800.36
2019-03-01T17:04:02.855Z,99801.45
2019-03-01T17:06:33.620Z,99801.83
2019-03-01T17:09:05.425Z,99803.52
2019-03-01T17:11:37.619Z,99805.12
2019-03-01T17:14:08.086Z,99807.77
2019-03-01T17:16:38.972Z,99808.13
2019-03-01T17:19:09.920Z,99810.69
2019-03-01T17:21:40.365Z,99815.88
2019-03-01T17:24:12.189Z,99825.78
2019-03-01T17:26:44.338Z,99825.55
2019-03-01T17:29:15.217Z,99826.42
2019-03-01T17:31:45.670Z,99835.44
2019-03-01T17:34:16.105Z,99839.31
2019-03-01T17:36:46.587Z,99847.03
2019-03-01T17:39:20.082Z,99843.52
2019-03-01T17:41:49.260Z,99848.23
2019-03-01T17:44:19.706Z,99850.45
2019-03-01T17:46:50.181Z,99844.66
2019-03-01T17:49:20.626Z,99849.33
2019-03-01T17:51:53.383Z,99849.95
2019-03-01T17:54:23.543Z,99851.52
2019-03-01T17:56:56.992Z,99854.27
2019-03-01T17:59:26.335Z,99852.80
2019-03-01T18:01:56.807Z,99857.98
2019-03-01T18:04:29.143Z,99862.28
2019-03-01T18:07:01.845Z,99859.20
2019-03-01T18:09:32.295Z,99869.58
2019-03-01T18:12:03.531Z,99877.86
2019-03-01T18:14:36.939Z,99893.41
2019-03-01T18:17:06.546Z,99892.55
2019-03-01T18:19:37.384Z,99888.70
2019-03-01T18:22:08.224Z,99891.81
2019-03-01T18:24:39.506Z,99888.56
2019-03-01T18:27:12.215Z,99883.03
2019-03-01T18:29:43.390Z,99887.37
2019-03-01T18:32:14.306Z,99879.91
2019-03-01T18:34:45.451Z,99889.43
2019-03-01T18:37:19.320Z,99894.53
2019-03-01T18:39:49.213Z,99894.89
2019-03-01T18:42:21.902Z,99899.38
2019-03-01T18:44:52.376Z,99903.11
2019-03-01T18:47:23.305Z,99902.67
2019-03-01T18:49:55.259Z,99899.60
2019-03-01T18:52:26.729Z,99902.75
2019-03-01T18:54:57.969Z,99908.41
2019-03-01T18:57:29.488Z,99901.32
2019-03-01T19:00:01.114Z,99904.83
2019-03-01T19:02:32.224Z,99904.59
2019-03-01T19:05:04.503Z,99903.61
2019-03-01T19:07:34.865Z,99901.58
2019-03-01T19:10:06.719Z,99899.50
2019-03-01T19:12:37.574Z,99906.02
2019-03-01T19:15:12.185Z,99902.75
2019-03-01T19:17:41.759Z,99905.50
2019-03-01T19:20:14.760Z,99910.44
2019-03-01T19:22:45.229Z,99902.25
2019-03-01T19:25:17.162Z,99906.47
2019-03-01T19:27:50.813Z,99909.12
2019-03-01T19:30:21.099Z,99909.58
2019-03-01T19:32:52.426Z,99915.15
2019-03-01T19:35:28.345Z,99915.52
2019-03-01T19:37:55.032Z,99914.52
2019-03-01T19:40:25.521Z,99920.45
2019-03-01T19:42:57.371Z,99918.00
2019-03-01T19:45:28.097Z,99915.12
2019-03-01T19:48:03.240Z,99910.08
2019-03-01T19:50:31.295Z,99917.80
2019-03-01T19:53:02.031Z,99916.97
2019-03-01T19:55:33.273Z,99921.66
2019-03-01T19:58:03.726Z,99921.80
2019-03-01T20:00:34.242Z,99925.78
2019-03-01T20:03:06.586Z,99927.34
2019-03-01T20:05:37.250Z,99929.75
2019-03-01T20:08:07.849Z,99924.92
2019-03-01T20:10:40.907Z,99925.77
2019-03-01T20:13:13.036Z,99920.01
2019-03-01T20:15:46.159Z,99925.64
2019-03-01T20:18:18.909Z,99935.67
2019-03-01T20:20:49.388Z,99929.27
2019-03-01T20:23:19.885Z,99929.62
2019-03-01T20:25:50.841Z,99927.36
2019-03-01T20:28:22.182Z,99935.89
2019-03-01T20:30:54.023Z,99929.16
2019-03-01T20:33:27.148Z,99928.77
2019-03-01T20:35:56.976Z,99931.70
2019-03-01T20:38:27.425Z,99929.86
2019-03-01T20:40:59.881Z,99927.34
2019-03-01T20:43:30.373Z,99931.57
2019-03-01T20:46:03.829Z,99934.58
2019-03-01T20:48:34.287Z,99936.99
2019-03-01T20:51:06.273Z,99937.13
2019-03-01T20:53:37.007Z,99936.14
2019-03-01T20:56:09.863Z,99936.64
2019-03-01T20:58:41.831Z,99944.11
2019-03-01T21:01:14.372Z,99942.20
2019-03-01T21:03:45.417Z,99941.20
2019-03-01T21:06:15.911Z,99952.56
2019-03-01T21:08:46.374Z,99947.37
2019-03-01T21:11:17.180Z,99949.52
2019-03-01T21:13:49.104Z,99952.22
2019-03-01T21:16:20.180Z,99951.83
2019-03-01T21:18:50.974Z,99953.41
2019-03-01T21:21:21.905Z,99950.01
2019-03-01T21:23:52.445Z,99948.58
2019-03-01T21:26:24.139Z,99949.80
2019-03-01T21:28:54.977Z,99950.77
2019-03-01T21:31:25.824Z,99954.63
2019-03-01T21:33:59.194Z,99955.45
2019-03-01T21:36:28.824Z,99949.56
2019-03-01T21:38:59.309Z,99953.41
2019-03-01T21:41:30.156Z,99949.42
2019-03-01T21:44:01.772Z,99945.95
2019-03-01T21:46:34.112Z,99951.73
2019-03-01T21:49:04.373Z,99952.44
2019-03-01T21:51:35.706Z,99955.95
2019-03-01T21:54:06.454Z,99946.20
2019-03-01T21:56:39.572Z,99950.28
2019-03-01T21:59:09.518Z,99951.38
2019-03-01T22:01:41.458Z,99951.39
2019-03-01T22:04:12.896Z,99954.87
2019-03-01T22:06:43.641Z,99949.70
2019-03-01T22:09:14.973Z,99950.17
2019-03-01T22:11:45.824Z,99954.87
2019-03-01T22:14:18.324Z,99950.78
2019-03-01T22:16:48.762Z,99954.39
2019-03-01T22:19:19.192Z,99951.38
2019-03-01T22:21:49.678Z,99952.83
2019-03-01T22:24:20.113Z,99953.78
2019-03-01T22:26:50.911Z,99958.59
2019-03-01T22:29:21.381Z,99959.20
2019-03-01T22:31:51.817Z,99962.13
2019-03-01T22:34:22.284Z,99966.31
2019-03-01T22:36:53.835Z,99959.94
2019-03-01T22:39:24.668Z,99960.41
2019-03-01T22:41:55.163Z,99967.27
2019-03-01T22:44:25.626Z,99964.49
2019-03-01T22:47:00.754Z,99959.09
2019-03-01T22:49:31.820Z,99964.14
2019-03-01T22:52:03.394Z,99959.58
2019-03-01T22:54:33.822Z,99961.03
2019-03-01T22:57:04.282Z,99956.56
2019-03-01T22:59:34.765Z,99957.52
2019-03-01T23:02:08.209Z,99957.05
2019-03-01T23:04:40.237Z,99963.55
2019-03-01T23:07:10.679Z,99963.80
2019-03-01T23:09:42.671Z,99971.51
2019-03-01T23:12:14.803Z,99968.11
2019-03-01T23:14:45.834Z,99972.23
2019-03-01T23:17:16.332Z,99976.30
2019-03-01T23:19:47.770Z,99979.70
2019-03-01T23:22:18.936Z,99984.02
2019-03-01T23:24:49.571Z,99988.13
2019-03-01T23:27:20.068Z,99982.69
2019-03-01T23:29:50.929Z,99989.22
2019-03-01T23:32:23.022Z,99980.64
2019-03-01T23:34:53.523Z,99985.48
2019-03-01T23:37:23.964Z,99985.23
2019-03-01T23:39:57.101Z,99986.17
2019-03-01T23:42:26.617Z,99986.56
2019-03-01T23:44:57.063Z,99984.63
2019-03-01T23:47:27.501Z,99988.22
2019-03-01T23:49:59.387Z,99991.38
2019-03-01T23:52:30.144Z,99987.87
2019-03-01T23:55:00.589Z,99985.70
2019-03-01T23:57:31.363Z,99979.20
